Gridleyville, New York
Current Conditions -  °F | °C
As of 7:56 AM on Saturday 20 Dec 2014 (Local Time) from KITH Reporting Station
Snow Showers Snow Showers  
Wind Chill: -3°   Ceiling: 1700
Heat Index: -3°   Visibility: 10mi
Dew Point: -5°   Wind: 3mph
Humidity: 88%   Direction: 320°NW
Pressure: 30.26"   Gusts: NA
Location:  42.294°N, 76.4012°W
Report Text: KITH 201256Z 32003KT 10SM -SHSN OVC017 M03/M05 A3026 RMK AO2 T10331050 P0000 SLP262
Loading
Personal Weather Stations






























Interactive Weather Map New forecast layout! Learn more

10-Day Weather Forecast

Advertisements
Track Severe Weather on mobile